Página principal
METAR-TAF:

METAR-TAF

Aeroportos :

Colmenar Viejo, Espanha

latitude: 40-39N, longitude: 003-44W, altura: -999 m

Observação actual do tempo

O boletim foi feito há 22 minutos, às 14:00 UTC
Vento 7 kt de este
Temperatura 16°C
Humidade 63%
Pressão 1018 hPa
Visibilidade 10 km ou mais
Nuvens dispersasa uma altura de 3000 ft

METAR: LECV 151400Z 08007KT 9999 SCT030 16/09 Q1018

Hora: 15:22 (14:22 UTC)

Previsão

O boletim foi feito há 3 horas e 22 minutos, às 11:00 UTC
Previsão válida de 15 às 12 UTC a 15 às 21 UTC
Vento 5 kt de es-nordeste
Visibilidade 10 km ou mais
Nuvens fragmentadasa uma altura de 5000 ft
Probabilidade 40% :
Temporariamente
de 15 às 15 UTC a 15 às 21 UTC
Nuvens dispersasa uma altura de 3000 ft, Cumulus congestus.
aguaceiros de chuva

TAF: LECV 151100Z 1512/1521 06005KT 9999 BKN050 PROB40 TEMPO 1515/1521 SHRA SCT030TCU

Observações e previsões do tempo de mais de 4000 aeroportos (mensagens METAR e TAF).

As estações disponíveis são os pontos amarelos e vermelhos sobre o mapa.

Mova o rato sobre o mapa para ver o nome da estação.

Depois clique no ponto para visualizar as observações e previsões meteorológicas.

Para alterar o mapa : clique nos botões verdes com uma cruz preta para aumentar o zoom; no botão verde com uma pitada de zoom; ou nas setas verdes para mapas adjacentes.


METAR-TAF: